createdAt,value
2022-12-08T00:00:40.254Z,5.98
2022-12-08T00:03:06.736Z,6.07
2022-12-08T00:05:51.828Z,5.92
2022-12-08T00:08:36.970Z,5.84
2022-12-08T00:11:03.449Z,5.86
2022-12-08T00:13:29.877Z,5.96
2022-12-08T00:16:02.563Z,5.96
2022-12-08T00:18:29.149Z,5.93
2022-12-08T00:20:56.884Z,6.11
2022-12-08T00:23:23.387Z,6.27
2022-12-08T00:25:49.850Z,6.32
2022-12-08T00:28:16.493Z,5.97
2022-12-08T00:30:43.312Z,5.90
2022-12-08T00:33:10.271Z,6.23
2022-12-08T00:35:42.774Z,6.08
2022-12-08T00:38:09.541Z,6.13
2022-12-08T00:40:36.028Z,6.18
2022-12-08T00:43:02.457Z,6.16
2022-12-08T00:45:29.000Z,6.17
2022-12-08T00:47:55.600Z,6.24
2022-12-08T00:50:22.022Z,6.21
2022-12-08T00:52:48.499Z,5.96
2022-12-08T00:55:14.972Z,6.12
2022-12-08T00:57:41.550Z,6.10
2022-12-08T01:00:08.479Z,6.14
2022-12-08T01:02:35.223Z,6.11
2022-12-08T01:05:01.705Z,6.18
2022-12-08T01:07:28.102Z,6.22
2022-12-08T01:09:54.589Z,6.29
2022-12-08T01:12:21.001Z,6.32
2022-12-08T01:14:47.436Z,6.31
2022-12-08T01:17:13.964Z,6.45
2022-12-08T01:19:40.390Z,6.51
2022-12-08T01:22:06.789Z,6.39
2022-12-08T01:24:33.567Z,6.58
2022-12-08T01:27:00.104Z,6.56
2022-12-08T01:29:27.837Z,6.61
2022-12-08T01:31:54.253Z,6.66
2022-12-08T01:34:20.706Z,6.82
2022-12-08T01:36:48.038Z,6.86
2022-12-08T01:39:16.417Z,6.94
2022-12-08T01:41:44.036Z,6.84
2022-12-08T01:44:13.138Z,6.98
2022-12-08T01:46:41.758Z,6.94
2022-12-08T01:49:20.562Z,6.99
2022-12-08T01:52:00.014Z,6.94
2022-12-08T01:54:29.783Z,7.06
2022-12-08T01:57:01.416Z,6.93
2022-12-08T01:59:29.072Z,6.84
2022-12-08T02:01:55.982Z,6.97
2022-12-08T02:04:22.509Z,7.19
2022-12-08T02:06:49.310Z,7.09
2022-12-08T02:09:15.933Z,7.24
2022-12-08T02:11:42.354Z,7.25
2022-12-08T02:14:11.439Z,7.06
2022-12-08T02:17:13.333Z,7.21
2022-12-08T02:20:15.545Z,7.07
2022-12-08T02:22:55.180Z,7.21
2022-12-08T02:25:27.269Z,7.19
2022-12-08T02:28:05.453Z,7.21
2022-12-08T02:30:47.054Z,7.23
2022-12-08T02:33:45.153Z,6.89
2022-12-08T02:36:20.496Z,7.02
2022-12-08T02:39:01.499Z,7.13
2022-12-08T02:41:46.433Z,7.31
2022-12-08T02:44:20.327Z,7.27
2022-12-08T02:46:56.313Z,7.20
2022-12-08T02:49:31.843Z,7.33
2022-12-08T02:52:28.367Z,7.28
2022-12-08T02:54:58.428Z,7.21
2022-12-08T02:57:24.723Z,7.36
2022-12-08T02:59:57.917Z,7.30
2022-12-08T03:02:34.715Z,7.04
2022-12-08T03:05:14.718Z,6.94
2022-12-08T03:07:48.179Z,7.17
2022-12-08T03:10:35.529Z,7.29
2022-12-08T03:13:21.293Z,7.36
2022-12-08T03:15:49.575Z,7.51
2022-12-08T03:18:17.343Z,7.49
2022-12-08T03:20:45.222Z,7.37
2022-12-08T03:23:12.814Z,7.44
2022-12-08T03:25:43.634Z,7.46
2022-12-08T03:28:10.295Z,7.59
2022-12-08T03:30:39.417Z,7.66
2022-12-08T03:33:15.624Z,7.65
2022-12-08T03:35:42.978Z,7.69
2022-12-08T03:38:15.464Z,7.50
2022-12-08T03:40:42.253Z,7.65
2022-12-08T03:43:08.774Z,7.47
2022-12-08T03:45:35.246Z,7.55
2022-12-08T03:48:01.776Z,7.54
2022-12-08T03:50:28.355Z,7.52
2022-12-08T03:52:54.865Z,7.35
2022-12-08T03:55:21.525Z,7.23
2022-12-08T03:57:47.942Z,7.03
2022-12-08T04:00:15.756Z,7.49
2022-12-08T04:02:42.209Z,7.24
2022-12-08T04:05:09.123Z,7.50
2022-12-08T04:07:35.646Z,7.31
2022-12-08T04:10:02.452Z,7.39
2022-12-08T04:12:28.987Z,7.23
2022-12-08T04:14:56.786Z,7.35
2022-12-08T04:17:23.361Z,7.36
2022-12-08T04:19:49.774Z,7.37
2022-12-08T04:22:16.293Z,7.44
2022-12-08T04:24:42.718Z,7.45
2022-12-08T04:27:09.079Z,7.46
2022-12-08T04:29:35.481Z,7.46
2022-12-08T04:32:01.850Z,7.37
2022-12-08T04:34:28.282Z,7.20
2022-12-08T04:36:54.804Z,7.33
2022-12-08T04:39:21.244Z,7.42
2022-12-08T04:41:47.694Z,7.38
2022-12-08T04:44:14.082Z,7.37
2022-12-08T04:46:43.557Z,7.28
2022-12-08T04:49:10.366Z,7.47
2022-12-08T04:51:36.776Z,7.50
2022-12-08T04:54:03.176Z,7.42
2022-12-08T04:56:30.420Z,7.28
2022-12-08T04:58:56.823Z,7.25
2022-12-08T05:01:23.313Z,7.31
2022-12-08T05:03:49.889Z,7.23
2022-12-08T05:06:16.394Z,7.25
2022-12-08T05:08:43.702Z,7.17
2022-12-08T05:11:11.738Z,7.35
2022-12-08T05:13:38.147Z,7.28
2022-12-08T05:16:06.983Z,7.32
2022-12-08T05:18:33.532Z,7.20
2022-12-08T05:21:00.017Z,7.19
2022-12-08T05:23:27.342Z,7.16
2022-12-08T05:25:53.783Z,7.16
2022-12-08T05:28:40.914Z,7.24
2022-12-08T05:31:06.851Z,7.37
2022-12-08T05:33:33.340Z,7.32
2022-12-08T05:35:59.793Z,7.33
2022-12-08T05:38:26.399Z,7.31
2022-12-08T05:40:52.817Z,7.16
2022-12-08T05:43:19.197Z,7.20
2022-12-08T05:46:08.280Z,7.31
2022-12-08T05:48:35.596Z,7.24
2022-12-08T05:51:02.111Z,7.31
2022-12-08T05:53:28.546Z,7.38
2022-12-08T05:55:55.022Z,7.32
2022-12-08T05:58:22.840Z,7.41
2022-12-08T06:00:50.413Z,7.41
2022-12-08T06:03:18.485Z,7.38
2022-12-08T06:05:46.498Z,7.51
2022-12-08T06:08:13.480Z,7.55
2022-12-08T06:10:41.565Z,7.55
2022-12-08T06:13:08.263Z,7.67
2022-12-08T06:15:35.762Z,7.61
2022-12-08T06:18:02.205Z,7.62
2022-12-08T06:20:28.737Z,7.40
2022-12-08T06:22:55.821Z,7.24
2022-12-08T06:25:22.940Z,7.41
2022-12-08T06:27:49.480Z,7.37
2022-12-08T06:30:16.440Z,7.18
2022-12-08T06:32:43.977Z,7.32
2022-12-08T06:35:10.627Z,7.07
2022-12-08T06:37:37.066Z,7.30
2022-12-08T06:40:04.069Z,7.28
2022-12-08T06:42:46.882Z,7.36
2022-12-08T06:45:16.040Z,7.02
2022-12-08T06:47:42.925Z,7.45
2022-12-08T06:50:10.533Z,7.35
2022-12-08T06:52:45.297Z,7.34
2022-12-08T06:55:42.123Z,7.36
2022-12-08T06:58:02.389Z,7.21
2022-12-08T07:00:28.849Z,7.20
2022-12-08T07:02:55.371Z,7.04
2022-12-08T07:05:21.818Z,7.08
2022-12-08T07:07:48.290Z,7.15
2022-12-08T07:10:14.886Z,7.12
2022-12-08T07:12:41.300Z,7.12
2022-12-08T07:15:08.511Z,7.00
2022-12-08T07:17:34.973Z,6.96
2022-12-08T07:20:01.995Z,7.00
2022-12-08T07:22:28.730Z,6.75
2022-12-08T07:24:55.199Z,6.73
2022-12-08T07:27:21.606Z,6.75
2022-12-08T07:29:48.028Z,6.89
2022-12-08T07:32:14.495Z,6.97
2022-12-08T07:34:40.939Z,7.02
2022-12-08T07:37:07.364Z,7.04
2022-12-08T07:39:33.903Z,6.93
2022-12-08T07:42:01.631Z,6.85
2022-12-08T07:44:28.026Z,6.99
2022-12-08T07:46:54.445Z,7.02
2022-12-08T07:49:21.092Z,7.02
2022-12-08T07:51:47.520Z,6.98
2022-12-08T07:54:13.929Z,7.00
2022-12-08T07:56:40.373Z,6.95
2022-12-08T07:59:06.781Z,6.85
2022-12-08T08:01:34.586Z,6.78
2022-12-08T08:04:04.268Z,6.60
2022-12-08T08:06:31.932Z,6.66
2022-12-08T08:08:58.395Z,6.67
2022-12-08T08:11:25.017Z,6.83
2022-12-08T08:13:52.511Z,6.82
2022-12-08T08:16:21.970Z,6.75
2022-12-08T08:18:50.269Z,6.82
2022-12-08T08:24:04.611Z,6.54
2022-12-08T08:26:31.049Z,6.65
2022-12-08T08:28:57.472Z,6.95
2022-12-08T08:31:27.326Z,6.99
2022-12-08T08:33:54.497Z,7.00
2022-12-08T08:36:22.096Z,6.75
2022-12-08T08:38:48.721Z,6.59
2022-12-08T08:41:15.168Z,6.55
2022-12-08T08:43:41.596Z,6.59
2022-12-08T08:46:09.061Z,6.79
2022-12-08T08:48:36.236Z,6.51
2022-12-08T08:51:13.786Z,6.67
2022-12-08T08:53:40.783Z,6.80
2022-12-08T08:56:15.606Z,6.89
2022-12-08T08:58:42.613Z,6.81
2022-12-08T09:01:09.349Z,6.74
2022-12-08T09:03:35.838Z,6.71
2022-12-08T09:06:02.323Z,6.80
2022-12-08T09:08:28.865Z,6.79
2022-12-08T09:10:55.369Z,6.83
2022-12-08T09:13:22.322Z,6.98
2022-12-08T09:15:49.198Z,7.05
2022-12-08T09:18:15.710Z,7.17
2022-12-08T09:20:42.377Z,6.99
2022-12-08T09:23:08.833Z,6.81
2022-12-08T09:25:35.228Z,6.90
2022-12-08T09:28:01.666Z,6.96
2022-12-08T09:30:28.052Z,7.19
2022-12-08T09:32:54.543Z,7.36
2022-12-08T09:35:20.985Z,7.33
2022-12-08T09:37:47.392Z,7.11
2022-12-08T09:40:17.754Z,7.26
2022-12-08T09:42:52.095Z,7.42
2022-12-08T09:45:19.445Z,7.39
2022-12-08T09:47:52.622Z,7.45
2022-12-08T09:50:30.388Z,7.45
2022-12-08T09:53:03.891Z,7.33
2022-12-08T09:55:52.916Z,7.39
2022-12-08T09:58:29.232Z,7.47
2022-12-08T10:00:56.252Z,7.51
2022-12-08T10:03:25.477Z,7.44
2022-12-08T10:06:20.673Z,7.53
2022-12-08T10:09:24.085Z,7.33
2022-12-08T10:11:55.451Z,7.39
2022-12-08T10:14:37.600Z,7.34
2022-12-08T10:17:14.764Z,7.35
2022-12-08T10:19:43.412Z,7.50
2022-12-08T10:22:18.029Z,7.48
2022-12-08T10:24:53.309Z,7.73
2022-12-08T10:27:20.297Z,7.71
2022-12-08T10:29:46.937Z,7.62
2022-12-08T10:32:19.786Z,7.65
2022-12-08T10:35:08.705Z,7.98
2022-12-08T10:37:35.691Z,8.26
2022-12-08T10:40:14.593Z,8.16
2022-12-08T10:42:49.173Z,8.14
2022-12-08T10:45:37.352Z,8.53
2022-12-08T10:48:18.158Z,8.56
2022-12-08T10:50:47.307Z,8.54
2022-12-08T10:53:23.897Z,8.66
2022-12-08T10:55:52.599Z,8.91
2022-12-08T10:58:29.815Z,8.84
2022-12-08T11:01:26.833Z,9.00
2022-12-08T11:04:05.266Z,9.02
2022-12-08T11:06:35.137Z,8.91
2022-12-08T11:09:04.796Z,8.71
2022-12-08T11:11:49.639Z,8.47
2022-12-08T11:14:25.472Z,8.38
2022-12-08T11:16:55.089Z,8.14
2022-12-08T11:19:22.357Z,8.19
2022-12-08T11:21:48.844Z,8.32
2022-12-08T11:24:15.448Z,8.30
2022-12-08T11:27:08.551Z,8.12
2022-12-08T11:29:35.791Z,8.20
2022-12-08T11:32:12.981Z,8.32
2022-12-08T11:34:48.693Z,8.42
2022-12-08T11:37:38.363Z,8.56
2022-12-08T11:40:11.065Z,8.26
2022-12-08T11:43:04.627Z,8.19
2022-12-08T11:45:33.952Z,8.05
2022-12-08T11:48:17.150Z,8.01
2022-12-08T11:50:50.883Z,8.10
2022-12-08T11:53:28.116Z,8.34
2022-12-08T11:56:00.943Z,8.51
2022-12-08T11:58:41.338Z,8.55
2022-12-08T12:01:19.021Z,8.83
2022-12-08T12:03:49.793Z,8.90
2022-12-08T12:06:53.163Z,9.02
2022-12-08T12:09:23.010Z,8.98
2022-12-08T12:12:33.749Z,9.06
2022-12-08T12:15:17.840Z,8.71
2022-12-08T12:17:47.436Z,8.83
2022-12-08T12:20:42.586Z,9.02
2022-12-08T12:23:11.545Z,9.13
2022-12-08T12:25:38.361Z,9.36
2022-12-08T12:28:07.060Z,9.49
2022-12-08T12:30:51.241Z,9.79
2022-12-08T12:33:19.559Z,9.78
2022-12-08T12:35:49.517Z,9.26
2022-12-08T12:38:51.159Z,8.39
2022-12-08T12:41:27.236Z,8.41
2022-12-08T12:44:11.952Z,8.38
2022-12-08T12:46:40.111Z,8.45
2022-12-08T12:49:37.739Z,8.22
2022-12-08T12:52:10.443Z,8.32
2022-12-08T12:54:45.567Z,8.39
2022-12-08T12:57:11.954Z,8.34
2022-12-08T12:59:48.977Z,8.19
2022-12-08T13:02:30.927Z,8.30
2022-12-08T13:04:57.658Z,8.23
2022-12-08T13:07:31.056Z,8.16
2022-12-08T13:10:02.788Z,8.06
2022-12-08T13:12:29.696Z,7.99
2022-12-08T13:15:03.194Z,8.18
2022-12-08T13:17:32.184Z,7.93
2022-12-08T13:20:00.779Z,7.98
2022-12-08T13:23:13.698Z,7.87
2022-12-08T13:25:40.103Z,7.79
2022-12-08T13:28:29.355Z,7.83
2022-12-08T13:31:00.410Z,7.96
2022-12-08T13:33:34.064Z,8.01
2022-12-08T13:36:06.552Z,8.10
2022-12-08T13:38:35.530Z,7.90
2022-12-08T13:41:04.649Z,8.11
2022-12-08T13:44:56.641Z,8.07
2022-12-08T13:47:24.729Z,7.94
2022-12-08T13:58:29.308Z,8.19
2022-12-08T14:01:18.057Z,8.11
2022-12-08T14:04:04.718Z,8.17
2022-12-08T14:06:42.455Z,8.41
2022-12-08T14:09:16.010Z,8.73
2022-12-08T14:11:47.669Z,8.82
2022-12-08T14:14:32.798Z,9.06
2022-12-08T14:17:07.699Z,9.27
2022-12-08T14:19:35.984Z,9.41
2022-12-08T14:22:09.910Z,9.41
2022-12-08T14:24:36.729Z,9.63
2022-12-08T14:27:05.408Z,9.49
2022-12-08T14:29:44.878Z,9.43
2022-12-08T14:32:34.270Z,9.12
2022-12-08T14:35:06.930Z,8.95
2022-12-08T14:37:44.958Z,8.76
2022-12-08T14:40:25.304Z,8.60
2022-12-08T14:43:13.601Z,8.50
2022-12-08T14:45:43.023Z,8.52
2022-12-08T14:48:30.894Z,8.41
2022-12-08T14:51:01.808Z,8.28
2022-12-08T14:53:36.378Z,8.25
2022-12-08T14:56:14.219Z,8.16
2022-12-08T14:58:40.992Z,7.99
2022-12-08T15:01:10.420Z,7.73
2022-12-08T15:03:37.138Z,7.56
2022-12-08T15:06:06.159Z,7.52
2022-12-08T15:08:33.775Z,7.41
2022-12-08T15:11:21.845Z,7.35
2022-12-08T15:13:50.597Z,7.25
2022-12-08T15:16:40.168Z,7.15
2022-12-08T15:19:16.878Z,7.10
2022-12-08T15:21:44.582Z,6.95
2022-12-08T15:24:12.708Z,6.94
2022-12-08T15:26:42.283Z,6.88
2022-12-08T15:29:16.861Z,6.88
2022-12-08T15:31:43.287Z,6.80
2022-12-08T15:34:09.892Z,6.57
2022-12-08T15:36:38.164Z,6.38
2022-12-08T15:39:06.533Z,6.30
2022-12-08T15:41:32.918Z,6.30
2022-12-08T15:43:59.629Z,6.25
2022-12-08T15:46:26.178Z,6.32
2022-12-08T15:48:57.937Z,6.12
2022-12-08T15:51:24.738Z,6.06
2022-12-08T15:53:51.312Z,5.99
2022-12-08T15:56:34.437Z,5.96
2022-12-08T15:59:04.014Z,5.95
2022-12-08T16:01:30.482Z,6.04
2022-12-08T16:04:27.933Z,5.86
2022-12-08T16:09:40.110Z,5.77
2022-12-08T16:13:34.035Z,5.66
2022-12-08T16:18:16.603Z,5.62
2022-12-08T16:21:07.564Z,5.55
2022-12-08T16:23:45.611Z,5.67
2022-12-08T16:29:05.866Z,5.42
2022-12-08T16:31:32.651Z,5.29
2022-12-08T16:33:59.504Z,5.16
2022-12-08T16:36:26.241Z,5.20
2022-12-08T16:38:52.725Z,5.13
2022-12-08T16:41:37.838Z,5.02
2022-12-08T16:44:06.080Z,5.10
2022-12-08T16:46:33.656Z,5.12
2022-12-08T16:49:00.128Z,4.96
2022-12-08T16:51:27.298Z,4.89
2022-12-08T16:53:55.074Z,4.77
2022-12-08T16:56:26.207Z,4.68
2022-12-08T16:58:57.199Z,4.90
2022-12-08T17:01:23.938Z,4.93
2022-12-08T17:04:07.470Z,4.88
2022-12-08T17:06:36.830Z,4.90
2022-12-08T17:09:03.417Z,4.93
2022-12-08T17:11:36.234Z,4.87
2022-12-08T17:14:09.085Z,4.82
2022-12-08T17:16:35.695Z,4.97
2022-12-08T17:19:02.684Z,5.05
2022-12-08T17:21:29.186Z,5.12
2022-12-08T17:23:55.880Z,5.20
2022-12-08T17:26:22.352Z,5.26
2022-12-08T17:29:04.258Z,5.46
2022-12-08T17:31:32.464Z,5.53
2022-12-08T17:34:03.070Z,5.65
2022-12-08T17:36:29.569Z,5.73
2022-12-08T17:38:57.211Z,5.75
2022-12-08T17:41:23.635Z,5.88
2022-12-08T17:43:50.114Z,5.88
2022-12-08T17:46:20.492Z,5.86
2022-12-08T17:48:47.371Z,5.88
2022-12-08T17:51:14.332Z,5.95
2022-12-08T17:53:40.889Z,6.03
2022-12-08T17:56:14.963Z,6.13
2022-12-08T17:58:41.379Z,6.07
2022-12-08T18:01:09.792Z,6.12
2022-12-08T18:03:36.846Z,6.37
2022-12-08T18:06:08.173Z,6.27
2022-12-08T18:08:34.585Z,6.44
2022-12-08T18:11:01.429Z,6.67
2022-12-08T18:13:27.930Z,6.87
2022-12-08T18:15:54.364Z,6.91
2022-12-08T18:18:22.536Z,6.84
2022-12-08T18:20:49.601Z,6.34
2022-12-08T18:23:17.103Z,6.10
2022-12-08T18:25:44.676Z,5.95
2022-12-08T18:28:11.145Z,5.77
2022-12-08T18:30:37.736Z,5.70
2022-12-08T18:33:05.120Z,5.52
2022-12-08T18:35:32.000Z,5.35
2022-12-08T18:38:00.053Z,5.17
2022-12-08T18:40:28.014Z,5.36
2022-12-08T18:42:54.636Z,5.10
2022-12-08T18:45:22.765Z,5.06
2022-12-08T18:47:50.402Z,5.05
2022-12-08T18:50:17.385Z,4.99
2022-12-08T18:52:45.194Z,4.88
2022-12-08T18:55:12.024Z,4.75
2022-12-08T18:57:39.599Z,4.66
2022-12-08T19:00:08.032Z,4.63
2022-12-08T19:02:37.423Z,4.54
2022-12-08T19:05:04.616Z,4.46
2022-12-08T19:07:31.034Z,4.55
2022-12-08T19:09:59.099Z,4.59
2022-12-08T19:12:25.504Z,4.39
2022-12-08T19:14:51.958Z,4.40
2022-12-08T19:17:18.355Z,4.56
2022-12-08T19:19:45.317Z,4.47
2022-12-08T19:22:12.276Z,4.27
2022-12-08T19:24:38.802Z,4.22
2022-12-08T19:27:05.737Z,4.28
2022-12-08T19:29:32.289Z,4.23
2022-12-08T19:32:00.209Z,4.28
2022-12-08T19:34:26.716Z,4.43
2022-12-08T19:36:53.381Z,4.41
2022-12-08T19:39:40.699Z,4.45
2022-12-08T19:42:37.498Z,4.47
2022-12-08T19:45:07.861Z,4.56
2022-12-08T19:47:34.421Z,4.54
2022-12-08T19:50:20.184Z,4.55
2022-12-08T19:52:46.634Z,4.42
2022-12-08T19:55:13.432Z,4.49
2022-12-08T19:57:39.886Z,4.58
2022-12-08T20:00:08.297Z,4.40
2022-12-08T20:02:36.339Z,4.54
2022-12-08T20:05:04.544Z,4.53
2022-12-08T20:07:31.028Z,4.62
2022-12-08T20:09:57.465Z,4.93
2022-12-08T20:12:24.238Z,5.25
2022-12-08T20:14:50.659Z,5.48
2022-12-08T20:17:17.101Z,5.76
2022-12-08T20:19:43.655Z,5.89
2022-12-08T20:22:10.120Z,6.13
2022-12-08T20:24:36.582Z,6.17
2022-12-08T20:27:02.981Z,6.13
2022-12-08T20:29:29.498Z,6.04
2022-12-08T20:31:55.980Z,6.03
2022-12-08T20:34:22.449Z,6.00
2022-12-08T20:36:48.927Z,5.90
2022-12-08T20:39:17.071Z,6.15
2022-12-08T20:41:45.004Z,6.40
2022-12-08T20:44:11.921Z,6.52
2022-12-08T20:46:38.571Z,6.56
2022-12-08T20:49:05.738Z,6.40
2022-12-08T20:51:33.590Z,6.16
2022-12-08T20:54:00.167Z,6.20
2022-12-08T20:56:27.130Z,6.41
2022-12-08T20:58:53.934Z,6.45
2022-12-08T21:01:22.691Z,6.64
2022-12-08T21:03:50.384Z,6.56
2022-12-08T21:06:22.180Z,6.42
2022-12-08T21:08:48.947Z,6.38
2022-12-08T21:11:15.987Z,6.21
2022-12-08T21:13:43.161Z,6.38
2022-12-08T21:16:13.020Z,6.46
2022-12-08T21:18:40.207Z,6.48
2022-12-08T21:21:13.011Z,6.38
2022-12-08T21:23:40.518Z,6.34
2022-12-08T21:26:18.436Z,6.27
2022-12-08T21:28:45.947Z,6.10
2022-12-08T21:31:16.040Z,6.05
2022-12-08T21:33:42.787Z,5.90
2022-12-08T21:36:14.656Z,5.97
2022-12-08T21:38:42.257Z,5.88
2022-12-08T21:41:10.998Z,5.91
2022-12-08T21:43:37.783Z,5.74
2022-12-08T21:46:04.783Z,5.84
2022-12-08T21:48:31.515Z,5.97
2022-12-08T21:51:04.348Z,5.94
2022-12-08T21:53:30.841Z,5.85
2022-12-08T21:55:57.407Z,5.76
2022-12-08T21:58:23.861Z,5.70
2022-12-08T22:00:50.570Z,5.70
2022-12-08T22:03:17.337Z,5.75
2022-12-08T22:05:44.079Z,5.65
2022-12-08T22:08:10.718Z,5.74
2022-12-08T22:10:38.345Z,5.71
2022-12-08T22:13:11.416Z,5.68
2022-12-08T22:15:38.099Z,5.59
2022-12-08T22:18:05.295Z,5.74
2022-12-08T22:20:43.724Z,5.86
2022-12-08T22:23:11.103Z,5.69
2022-12-08T22:25:37.715Z,5.70
2022-12-08T22:28:04.688Z,5.72
2022-12-08T22:30:37.229Z,5.74
2022-12-08T22:33:05.516Z,5.65
2022-12-08T22:35:32.171Z,5.57
2022-12-08T22:37:58.715Z,5.60
2022-12-08T22:40:25.258Z,5.48
2022-12-08T22:42:51.803Z,5.45
2022-12-08T22:45:18.459Z,5.44
2022-12-08T22:47:45.037Z,5.39
2022-12-08T22:50:11.944Z,5.46
2022-12-08T22:52:38.848Z,5.47
2022-12-08T22:55:05.893Z,5.49
2022-12-08T22:57:32.805Z,5.48
2022-12-08T22:59:59.242Z,5.36
2022-12-08T23:02:25.915Z,5.40
2022-12-08T23:04:56.214Z,5.37
2022-12-08T23:07:23.062Z,5.45
2022-12-08T23:09:49.577Z,5.51
2022-12-08T23:12:16.028Z,5.49
2022-12-08T23:14:42.761Z,5.52
2022-12-08T23:17:10.894Z,5.61
2022-12-08T23:19:38.698Z,5.76
2022-12-08T23:22:05.403Z,5.67
2022-12-08T23:24:31.957Z,5.63
2022-12-08T23:26:58.539Z,5.72
2022-12-08T23:29:25.153Z,5.74
2022-12-08T23:31:51.704Z,5.73
2022-12-08T23:34:18.396Z,5.71
2022-12-08T23:36:44.925Z,5.80
2022-12-08T23:39:11.422Z,5.81
2022-12-08T23:41:38.283Z,5.64
2022-12-08T23:44:04.683Z,6.00
2022-12-08T23:46:31.138Z,5.90
2022-12-08T23:48:57.699Z,6.05
2022-12-08T23:51:24.120Z,6.04
2022-12-08T23:53:50.514Z,6.08
2022-12-08T23:56:17.910Z,6.07
2022-12-08T23:58:45.093Z,6.19
